DAL53 KLAX-KSLC
Flight info
| Callsign | DAL53 |
|---|---|
| Flight time | N/A |
| Altitude | 35000 |
| Route | ORCKA5 LAS Q70 BLIPP Q842 WINEN MLF PITTT2 |
| Aircraft | A20N/M-SDE2E3FGHIRWXY/LB1 |
Departure
| Time | 2026-04-23 03:47 |
|---|---|
| Airport | Los Angeles International Airport (KLAX) |
Arrival
| Time | N/A |
|---|---|
| Airport | Salt Lake City International Airport (KSLC) |
| Time | Latitude | Longitude | Altitude | Speed | Heading |
|---|---|---|---|---|---|
| 2026-04-23 03:25 | 33.94661 | -118.40485 | 125 ft | 0 kts | 117° |
| 2026-04-23 03:39 | 33.94666 | -118.40497 | 125 ft | 3 kts | 117° |
| 2026-04-23 03:39 | 33.94672 | -118.40522 | 120 ft | 3 kts | 85° |
| 2026-04-23 03:39 | 33.94666 | -118.40547 | 122 ft | 3 kts | 52° |
| 2026-04-23 03:39 | 33.94650 | -118.40564 | 122 ft | 3 kts | 19° |
| 2026-04-23 03:40 | 33.94641 | -118.40567 | 122 ft | 0 kts | 7° |
| 2026-04-23 03:43 | 33.94644 | -118.40567 | 122 ft | 2 kts | 4° |
| 2026-04-23 03:43 | 33.94691 | -118.40574 | 123 ft | 10 kts | 351° |
| 2026-04-23 03:43 | 33.94770 | -118.40585 | 122 ft | 13 kts | 353° |
| 2026-04-23 03:43 | 33.94857 | -118.40586 | 124 ft | 11 kts | 47° |
| 2026-04-23 03:44 | 33.94877 | -118.40486 | 123 ft | 14 kts | 83° |
| 2026-04-23 03:44 | 33.94886 | -118.40405 | 125 ft | 16 kts | 82° |
| 2026-04-23 03:44 | 33.94899 | -118.40264 | 124 ft | 18 kts | 83° |
| 2026-04-23 03:44 | 33.94915 | -118.40104 | 123 ft | 20 kts | 82° |
| 2026-04-23 03:45 | 33.94946 | -118.39933 | 125 ft | 17 kts | 56° |
| 2026-04-23 03:45 | 33.94957 | -118.39921 | 124 ft | 0 kts | 33° |
| 2026-04-23 03:46 | 33.94958 | -118.39921 | 124 ft | 1 kts | 33° |
| 2026-04-23 03:46 | 33.95007 | -118.39929 | 123 ft | 11 kts | 329° |
| 2026-04-23 03:46 | 33.95025 | -118.40134 | 125 ft | 56 kts | 263° |
| 2026-04-23 03:46 | 33.94949 | -118.40868 | 122 ft | 115 kts | 263° |
| 2026-04-23 03:47 | 33.94831 | -118.42009 | 210 ft | 153 kts | 263° |
| 2026-04-23 03:47 | 33.94708 | -118.43324 | 613 ft | 166 kts | 264° |
| 2026-04-23 03:47 | 33.94587 | -118.44755 | 1114 ft | 177 kts | 264° |
| 2026-04-23 03:47 | 33.94452 | -118.46230 | 1733 ft | 182 kts | 265° |
| 2026-04-23 03:48 | 33.94305 | -118.47765 | 2356 ft | 187 kts | 265° |
| 2026-04-23 03:48 | 33.94144 | -118.49318 | 3045 ft | 184 kts | 264° |
| 2026-04-23 03:48 | 33.93853 | -118.50767 | 3791 ft | 177 kts | 241° |
| 2026-04-23 03:48 | 33.92952 | -118.51751 | 4358 ft | 181 kts | 200° |
| 2026-04-23 03:49 | 33.91679 | -118.51842 | 4677 ft | 192 kts | 162° |
| 2026-04-23 03:49 | 33.90580 | -118.50972 | 4589 ft | 192 kts | 122° |
| 2026-04-23 03:49 | 33.90175 | -118.49492 | 4292 ft | 186 kts | 81° |
| 2026-04-23 03:49 | 33.90618 | -118.48072 | 3958 ft | 191 kts | 46° |
| 2026-04-23 03:50 | 33.91533 | -118.46675 | 3956 ft | 232 kts | 50° |
| 2026-04-23 03:50 | 33.92507 | -118.44943 | 3958 ft | 263 kts | 56° |
| 2026-04-23 03:50 | 33.93500 | -118.43068 | 4022 ft | 267 kts | 52° |
| 2026-04-23 03:50 | 33.94575 | -118.41219 | 4562 ft | 271 kts | 53° |
| 2026-04-23 03:51 | 33.95622 | -118.39348 | 5580 ft | 270 kts | 54° |
| 2026-04-23 03:51 | 33.96682 | -118.37447 | 6364 ft | 278 kts | 54° |
| 2026-04-23 03:51 | 33.97770 | -118.35497 | 7148 ft | 283 kts | 53° |
| 2026-04-23 03:51 | 33.98884 | -118.33508 | 7905 ft | 290 kts | 52° |
| 2026-04-23 03:52 | 34.00031 | -118.31464 | 8675 ft | 297 kts | 52° |
| 2026-04-23 03:52 | 34.01291 | -118.29481 | 9425 ft | 301 kts | 45° |
| 2026-04-23 03:52 | 34.02635 | -118.27541 | 10164 ft | 308 kts | 45° |
| 2026-04-23 03:52 | 34.04074 | -118.25465 | 10512 ft | 330 kts | 45° |
| 2026-04-23 03:53 | 34.05577 | -118.23295 | 10739 ft | 353 kts | 45° |
| 2026-04-23 03:53 | 34.07189 | -118.20953 | 11295 ft | 362 kts | 45° |
| 2026-04-23 03:53 | 34.08781 | -118.18625 | 12027 ft | 366 kts | 45° |
| 2026-04-23 03:53 | 34.10416 | -118.16237 | 12709 ft | 372 kts | 45° |
| 2026-04-23 03:54 | 34.12080 | -118.13806 | 13419 ft | 377 kts | 45° |
| 2026-04-23 03:54 | 34.13761 | -118.11352 | 14093 ft | 383 kts | 45° |
| 2026-04-23 03:54 | 34.15470 | -118.08859 | 14689 ft | 388 kts | 45° |
| 2026-04-23 03:54 | 34.17200 | -118.06332 | 15295 ft | 393 kts | 45° |
| 2026-04-23 03:55 | 34.18983 | -118.03733 | 15530 ft | 411 kts | 45° |
| 2026-04-23 03:55 | 34.20843 | -118.01018 | 15715 ft | 428 kts | 45° |
| 2026-04-23 03:55 | 34.22776 | -117.98192 | 15894 ft | 444 kts | 46° |
| 2026-04-23 03:55 | 34.24773 | -117.95269 | 16082 ft | 458 kts | 46° |
| 2026-04-23 03:56 | 34.26812 | -117.92277 | 16522 ft | 464 kts | 46° |
| 2026-04-23 03:56 | 34.28868 | -117.89251 | 17091 ft | 467 kts | 46° |
| 2026-04-23 03:56 | 34.30947 | -117.86196 | 17572 ft | 471 kts | 46° |
| 2026-04-23 03:56 | 34.33033 | -117.83126 | 18113 ft | 475 kts | 46° |
| 2026-04-23 03:57 | 34.35142 | -117.80022 | 18560 ft | 480 kts | 46° |
| 2026-04-23 03:57 | 34.37268 | -117.76888 | 19041 ft | 483 kts | 46° |
| 2026-04-23 03:57 | 34.39406 | -117.73737 | 19498 ft | 486 kts | 46° |
| 2026-04-23 03:57 | 34.41562 | -117.70560 | 19931 ft | 490 kts | 46° |
| 2026-04-23 03:58 | 34.43736 | -117.67352 | 20355 ft | 494 kts | 46° |
| 2026-04-23 03:58 | 34.45921 | -117.64127 | 20772 ft | 498 kts | 46° |
| 2026-04-23 03:58 | 34.48123 | -117.60871 | 21203 ft | 501 kts | 46° |
| 2026-04-23 03:58 | 34.50337 | -117.57593 | 21596 ft | 505 kts | 46° |
| 2026-04-23 03:59 | 34.52570 | -117.54285 | 21998 ft | 509 kts | 46° |
| 2026-04-23 03:59 | 34.54817 | -117.50953 | 22394 ft | 512 kts | 46° |
| 2026-04-23 03:59 | 34.57053 | -117.47633 | 22774 ft | 516 kts | 46° |
| 2026-04-23 03:59 | 34.59327 | -117.44255 | 23139 ft | 519 kts | 46° |
| 2026-04-23 04:00 | 34.61618 | -117.40847 | 23500 ft | 523 kts | 46° |
| 2026-04-23 04:00 | 34.62751 | -117.39161 | 23665 ft | 525 kts | 46° |